sensor_id;sensor_type;location;lat;lon;timestamp;pressure;altitude;pressure_sealevel;temperature;humidity
77321;BME280;66382;52.252;8.780;2023-02-15T00:01:31;101969.28;;;4.48;68.13
77321;BME280;66382;52.252;8.780;2023-02-15T00:03:56;101974.28;;;4.53;68.43
77321;BME280;66382;52.252;8.780;2023-02-15T00:06:22;101975.13;;;4.53;69.21
77321;BME280;66382;52.252;8.780;2023-02-15T00:08:49;101976.19;;;4.51;68.41
77321;BME280;66382;52.252;8.780;2023-02-15T00:11:17;101979.78;;;4.50;69.15
77321;BME280;66382;52.252;8.780;2023-02-15T00:13:43;101982.34;;;4.51;69.16
77321;BME280;66382;52.252;8.780;2023-02-15T00:16:11;101978.75;;;4.52;68.63
77321;BME280;66382;52.252;8.780;2023-02-15T00:18:37;101987.41;;;4.55;69.24
77321;BME280;66382;52.252;8.780;2023-02-15T00:21:04;101977.88;;;4.52;68.69
77321;BME280;66382;52.252;8.780;2023-02-15T00:23:31;101970.13;;;4.49;68.71
77321;BME280;66382;52.252;8.780;2023-02-15T00:26:06;101972.78;;;4.49;68.40
77321;BME280;66382;52.252;8.780;2023-02-15T00:28:32;101974.72;;;4.47;68.84
77321;BME280;66382;52.252;8.780;2023-02-15T00:31:03;101966.22;;;4.42;68.58
77321;BME280;66382;52.252;8.780;2023-02-15T00:33:29;101958.84;;;4.34;68.96
77321;BME280;66382;52.252;8.780;2023-02-15T00:35:56;101952.00;;;4.19;67.99
77321;BME280;66382;52.252;8.780;2023-02-15T00:38:22;101953.47;;;4.10;68.26
77321;BME280;66382;52.252;8.780;2023-02-15T00:40:52;101955.53;;;4.06;68.78
77321;BME280;66382;52.252;8.780;2023-02-15T00:43:19;101962.66;;;4.06;68.84
77321;BME280;66382;52.252;8.780;2023-02-15T00:45:45;101957.84;;;4.11;68.99
77321;BME280;66382;52.252;8.780;2023-02-15T00:48:10;101959.31;;;4.15;69.31
77321;BME280;66382;52.252;8.780;2023-02-15T00:50:36;101951.84;;;4.20;69.25
77321;BME280;66382;52.252;8.780;2023-02-15T00:53:02;101951.66;;;4.23;69.15
77321;BME280;66382;52.252;8.780;2023-02-15T00:55:28;101955.06;;;4.25;68.64
77321;BME280;66382;52.252;8.780;2023-02-15T00:57:53;101954.41;;;4.22;68.89
77321;BME280;66382;52.252;8.780;2023-02-15T01:00:21;101945.94;;;4.17;67.90
77321;BME280;66382;52.252;8.780;2023-02-15T01:02:47;101949.75;;;4.13;68.27
77321;BME280;66382;52.252;8.780;2023-02-15T01:05:13;101949.25;;;4.07;68.52
77321;BME280;66382;52.252;8.780;2023-02-15T01:07:38;101947.78;;;4.03;68.22
77321;BME280;66382;52.252;8.780;2023-02-15T01:10:05;101946.41;;;3.98;67.63
77321;BME280;66382;52.252;8.780;2023-02-15T01:12:31;101945.06;;;3.92;68.07
77321;BME280;66382;52.252;8.780;2023-02-15T01:14:57;101946.22;;;3.88;67.97
77321;BME280;66382;52.252;8.780;2023-02-15T01:17:24;101938.63;;;3.83;68.30
77321;BME280;66382;52.252;8.780;2023-02-15T01:19:50;101939.03;;;3.77;67.99
77321;BME280;66382;52.252;8.780;2023-02-15T01:22:16;101949.22;;;3.71;68.03
77321;BME280;66382;52.252;8.780;2023-02-15T01:24:41;101942.47;;;3.66;68.69
77321;BME280;66382;52.252;8.780;2023-02-15T01:27:07;101938.31;;;3.62;68.77
77321;BME280;66382;52.252;8.780;2023-02-15T01:29:33;101943.72;;;3.61;69.59
77321;BME280;66382;52.252;8.780;2023-02-15T01:31:59;101930.91;;;3.55;69.97
77321;BME280;66382;52.252;8.780;2023-02-15T01:34:26;101932.16;;;3.62;69.01
77321;BME280;66382;52.252;8.780;2023-02-15T01:36:51;101929.28;;;3.65;69.07
77321;BME280;66382;52.252;8.780;2023-02-15T01:39:17;101925.06;;;3.62;69.93
77321;BME280;66382;52.252;8.780;2023-02-15T01:41:43;101925.78;;;3.64;69.39
77321;BME280;66382;52.252;8.780;2023-02-15T01:44:46;101924.94;;;3.64;69.08
77321;BME280;66382;52.252;8.780;2023-02-15T01:47:14;101931.94;;;3.65;69.64
77321;BME280;66382;52.252;8.780;2023-02-15T01:49:44;101924.00;;;3.65;69.00
77321;BME280;66382;52.252;8.780;2023-02-15T01:52:14;101920.59;;;3.63;69.54
77321;BME280;66382;52.252;8.780;2023-02-15T01:54:44;101918.91;;;3.62;68.90
77321;BME280;66382;52.252;8.780;2023-02-15T01:57:15;101910.44;;;3.57;69.59
77321;BME280;66382;52.252;8.780;2023-02-15T01:59:46;101913.81;;;3.59;69.30
77321;BME280;66382;52.252;8.780;2023-02-15T02:02:16;101906.19;;;3.54;69.42
77321;BME280;66382;52.252;8.780;2023-02-15T02:04:48;101903.53;;;3.54;68.94
77321;BME280;66382;52.252;8.780;2023-02-15T02:07:15;101907.25;;;3.52;69.35
77321;BME280;66382;52.252;8.780;2023-02-15T02:09:43;101905.78;;;3.48;69.03
77321;BME280;66382;52.252;8.780;2023-02-15T02:12:09;101908.72;;;3.43;69.54
77321;BME280;66382;52.252;8.780;2023-02-15T02:14:36;101906.09;;;3.43;69.34
77321;BME280;66382;52.252;8.780;2023-02-15T02:17:07;101906.09;;;3.43;69.26
77321;BME280;66382;52.252;8.780;2023-02-15T02:19:59;101906.09;;;3.43;68.79
77321;BME280;66382;52.252;8.780;2023-02-15T02:23:04;101901.97;;;3.39;69.50
77321;BME280;66382;52.252;8.780;2023-02-15T02:26:05;101908.34;;;3.36;69.52
77321;BME280;66382;52.252;8.780;2023-02-15T02:29:03;101899.50;;;3.36;69.73
77321;BME280;66382;52.252;8.780;2023-02-15T02:31:58;101903.97;;;3.35;68.84
77321;BME280;66382;52.252;8.780;2023-02-15T02:34:36;101892.09;;;3.28;69.51
77321;BME280;66382;52.252;8.780;2023-02-15T02:37:13;101904.41;;;3.29;69.20
77321;BME280;66382;52.252;8.780;2023-02-15T02:39:47;101892.31;;;3.25;69.01
77321;BME280;66382;52.252;8.780;2023-02-15T02:42:21;101889.91;;;3.22;69.46
77321;BME280;66382;52.252;8.780;2023-02-15T02:44:54;101881.28;;;3.18;69.40
77321;BME280;66382;52.252;8.780;2023-02-15T02:47:25;101882.34;;;3.16;69.50
77321;BME280;66382;52.252;8.780;2023-02-15T02:49:58;101883.41;;;3.13;69.22
77321;BME280;66382;52.252;8.780;2023-02-15T02:52:39;101882.47;;;3.14;69.22
77321;BME280;66382;52.252;8.780;2023-02-15T02:55:10;101875.91;;;3.07;69.17
77321;BME280;66382;52.252;8.780;2023-02-15T02:57:41;101875.91;;;3.07;69.56
77321;BME280;66382;52.252;8.780;2023-02-15T03:00:09;101876.09;;;3.04;69.57
77321;BME280;66382;52.252;8.780;2023-02-15T03:02:39;101869.31;;;3.00;70.43
77321;BME280;66382;52.252;8.780;2023-02-15T03:05:12;101871.97;;;3.00;70.54
77321;BME280;66382;52.252;8.780;2023-02-15T03:07:41;101876.44;;;2.99;69.73
77321;BME280;66382;52.252;8.780;2023-02-15T03:10:09;101869.31;;;3.00;69.49
77321;BME280;66382;52.252;8.780;2023-02-15T03:12:37;101871.84;;;3.01;70.14
77321;BME280;66382;52.252;8.780;2023-02-15T03:15:08;101865.19;;;2.96;69.96
77321;BME280;66382;52.252;8.780;2023-02-15T03:17:36;101862.66;;;2.94;69.50
77321;BME280;66382;52.252;8.780;2023-02-15T03:20:09;101864.13;;;2.98;69.91
77321;BME280;66382;52.252;8.780;2023-02-15T03:22:38;101872.19;;;2.97;69.96
77321;BME280;66382;52.252;8.780;2023-02-15T03:25:09;101856.50;;;2.94;69.66
77321;BME280;66382;52.252;8.780;2023-02-15T03:27:41;101862.75;;;2.93;69.75
77321;BME280;66382;52.252;8.780;2023-02-15T03:30:10;101859.34;;;2.91;70.16
77321;BME280;66382;52.252;8.780;2023-02-15T03:32:38;101866.69;;;2.87;69.78
77321;BME280;66382;52.252;8.780;2023-02-15T03:35:05;101852.16;;;2.80;69.98
77321;BME280;66382;52.252;8.780;2023-02-15T03:37:37;101855.56;;;2.82;69.88
77321;BME280;66382;52.252;8.780;2023-02-15T03:40:10;101862.53;;;2.83;69.97
77321;BME280;66382;52.252;8.780;2023-02-15T03:42:39;101846.03;;;2.79;69.97
77321;BME280;66382;52.252;8.780;2023-02-15T03:45:09;101844.09;;;2.82;70.04
77321;BME280;66382;52.252;8.780;2023-02-15T03:47:41;101839.13;;;2.77;69.62
77321;BME280;66382;52.252;8.780;2023-02-15T03:50:12;101849.06;;;2.73;69.64
77321;BME280;66382;52.252;8.780;2023-02-15T03:52:40;101836.88;;;2.71;69.71
77321;BME280;66382;52.252;8.780;2023-02-15T03:55:06;101842.41;;;2.68;69.61
77321;BME280;66382;52.252;8.780;2023-02-15T03:57:35;101838.25;;;2.64;70.01
77321;BME280;66382;52.252;8.780;2023-02-15T04:00:05;101843.22;;;2.55;69.95
77321;BME280;66382;52.252;8.780;2023-02-15T04:02:35;101842.78;;;2.49;70.07
77321;BME280;66382;52.252;8.780;2023-02-15T04:05:04;101839.50;;;2.45;70.17
77321;BME280;66382;52.252;8.780;2023-02-15T04:07:29;101836.88;;;2.45;70.05
77321;BME280;66382;52.252;8.780;2023-02-15T04:09:56;101836.31;;;2.40;70.53
77321;BME280;66382;52.252;8.780;2023-02-15T04:12:22;101828.69;;;2.35;70.68
77321;BME280;66382;52.252;8.780;2023-02-15T04:14:48;101840.63;;;2.28;70.49
77321;BME280;66382;52.252;8.780;2023-02-15T04:17:14;101839.56;;;2.31;70.45
77321;BME280;66382;52.252;8.780;2023-02-15T04:19:39;101831.63;;;2.31;70.28
77321;BME280;66382;52.252;8.780;2023-02-15T04:22:05;101843.91;;;2.32;70.52
77321;BME280;66382;52.252;8.780;2023-02-15T04:24:31;101845.50;;;2.34;71.12
77321;BME280;66382;52.252;8.780;2023-02-15T04:26:58;101839.66;;;2.29;70.54
77321;BME280;66382;52.252;8.780;2023-02-15T04:29:25;101833.44;;;2.30;70.50
77321;BME280;66382;52.252;8.780;2023-02-15T04:31:53;101838.31;;;2.36;70.28
77321;BME280;66382;52.252;8.780;2023-02-15T04:34:19;101839.91;;;2.39;70.19
77321;BME280;66382;52.252;8.780;2023-02-15T04:36:45;101832.94;;;2.38;69.96
77321;BME280;66382;52.252;8.780;2023-02-15T04:39:12;101830.59;;;2.33;70.09
77321;BME280;66382;52.252;8.780;2023-02-15T04:41:38;101833.97;;;2.35;69.79
77321;BME280;66382;52.252;8.780;2023-02-15T04:44:06;101824.84;;;2.27;69.78
77321;BME280;66382;52.252;8.780;2023-02-15T04:46:32;101826.66;;;2.26;70.20
77321;BME280;66382;52.252;8.780;2023-02-15T04:48:57;101828.31;;;2.27;70.11
77321;BME280;66382;52.252;8.780;2023-02-15T04:51:23;101830.88;;;2.29;70.27
77321;BME280;66382;52.252;8.780;2023-02-15T04:53:49;101824.00;;;2.26;70.18
77321;BME280;66382;52.252;8.780;2023-02-15T04:56:15;101825.59;;;2.29;70.25
77321;BME280;66382;52.252;8.780;2023-02-15T04:58:41;101814.25;;;2.27;69.72
77321;BME280;66382;52.252;8.780;2023-02-15T05:01:08;101816.28;;;2.23;70.01
77321;BME280;66382;52.252;8.780;2023-02-15T05:03:34;101808.44;;;2.22;70.04
77321;BME280;66382;52.252;8.780;2023-02-15T05:06:00;101810.31;;;2.20;70.10
77321;BME280;66382;52.252;8.780;2023-02-15T05:08:26;101803.34;;;2.19;69.80
77321;BME280;66382;52.252;8.780;2023-02-15T05:10:52;101797.31;;;2.17;69.91
77321;BME280;66382;52.252;8.780;2023-02-15T05:13:17;101802.81;;;2.13;69.52
77321;BME280;66382;52.252;8.780;2023-02-15T05:15:47;101784.44;;;1.98;69.49
77321;BME280;66382;52.252;8.780;2023-02-15T05:18:14;101793.53;;;1.93;69.49
77321;BME280;66382;52.252;8.780;2023-02-15T05:20:40;101794.38;;;1.94;69.77
77321;BME280;66382;52.252;8.780;2023-02-15T05:23:06;101803.28;;;1.93;70.56
77321;BME280;66382;52.252;8.780;2023-02-15T05:25:32;101789.31;;;1.91;70.48
77321;BME280;66382;52.252;8.780;2023-02-15T05:27:57;101794.78;;;1.88;70.68
77321;BME280;66382;52.252;8.780;2023-02-15T05:30:23;101801.84;;;1.87;71.10
77321;BME280;66382;52.252;8.780;2023-02-15T05:32:49;101798.47;;;1.85;70.62
77321;BME280;66382;52.252;8.780;2023-02-15T05:35:16;101789.06;;;1.81;70.47
77321;BME280;66382;52.252;8.780;2023-02-15T05:37:42;101807.78;;;1.78;70.50
77321;BME280;66382;52.252;8.780;2023-02-15T05:40:08;101805.84;;;1.80;70.90
77321;BME280;66382;52.252;8.780;2023-02-15T05:42:34;101812.72;;;1.83;70.65
77321;BME280;66382;52.252;8.780;2023-02-15T05:45:00;101814.44;;;1.84;70.74
77321;BME280;66382;52.252;8.780;2023-02-15T05:47:26;101813.50;;;1.85;70.84
77321;BME280;66382;52.252;8.780;2023-02-15T05:49:52;101813.50;;;1.85;70.30
77321;BME280;66382;52.252;8.780;2023-02-15T05:52:19;101815.09;;;1.87;70.74
77321;BME280;66382;52.252;8.780;2023-02-15T05:54:44;101797.75;;;1.83;70.98
77321;BME280;66382;52.252;8.780;2023-02-15T05:57:10;101805.97;;;1.79;70.49
77321;BME280;66382;52.252;8.780;2023-02-15T05:59:36;101802.56;;;1.77;70.44
77321;BME280;66382;52.252;8.780;2023-02-15T06:02:01;101807.09;;;1.75;70.04
77321;BME280;66382;52.252;8.780;2023-02-15T06:04:27;101807.19;;;1.73;70.43
77321;BME280;66382;52.252;8.780;2023-02-15T06:06:55;101798.28;;;1.61;70.57
77321;BME280;66382;52.252;8.780;2023-02-15T06:09:22;101785.66;;;1.52;70.69
77321;BME280;66382;52.252;8.780;2023-02-15T06:11:48;101798.66;;;1.55;70.90
77321;BME280;66382;52.252;8.780;2023-02-15T06:14:14;101800.47;;;1.55;70.73
77321;BME280;66382;52.252;8.780;2023-02-15T06:16:39;101799.63;;;1.54;71.70
77321;BME280;66382;52.252;8.780;2023-02-15T06:19:05;101793.78;;;1.49;71.70
77321;BME280;66382;52.252;8.780;2023-02-15T06:21:31;101799.25;;;1.46;71.35
77321;BME280;66382;52.252;8.780;2023-02-15T06:23:57;101797.47;;;1.46;71.04
77321;BME280;66382;52.252;8.780;2023-02-15T06:26:24;101802.63;;;1.48;70.96
77321;BME280;66382;52.252;8.780;2023-02-15T06:28:49;101803.59;;;1.47;71.20
77321;BME280;66382;52.252;8.780;2023-02-15T06:31:15;101804.63;;;1.44;71.06
77321;BME280;66382;52.252;8.780;2023-02-15T06:33:41;101790.13;;;1.37;71.61
77321;BME280;66382;52.252;8.780;2023-02-15T06:36:06;101800.28;;;1.43;71.07
77321;BME280;66382;52.252;8.780;2023-02-15T06:38:32;101802.75;;;1.46;70.86
77321;BME280;66382;52.252;8.780;2023-02-15T06:40:58;101807.53;;;1.54;71.03
77321;BME280;66382;52.252;8.780;2023-02-15T06:43:25;101786.59;;;1.51;72.14
77321;BME280;66382;52.252;8.780;2023-02-15T06:45:51;101789.97;;;1.53;70.58
77321;BME280;66382;52.252;8.780;2023-02-15T06:48:16;101791.97;;;1.49;70.84
77321;BME280;66382;52.252;8.780;2023-02-15T06:50:42;101784.53;;;1.42;71.58
77321;BME280;66382;52.252;8.780;2023-02-15T06:53:08;101798.69;;;1.41;71.57
77321;BME280;66382;52.252;8.780;2023-02-15T06:55:34;101795.19;;;1.40;71.91
77321;BME280;66382;52.252;8.780;2023-02-15T06:57:59;101791.78;;;1.38;72.00
77321;BME280;66382;52.252;8.780;2023-02-15T07:00:26;101806.31;;;1.45;71.46
77321;BME280;66382;52.252;8.780;2023-02-15T07:02:53;101804.97;;;1.53;72.10
77321;BME280;66382;52.252;8.780;2023-02-15T07:05:19;101799.50;;;1.56;72.71
77321;BME280;66382;52.252;8.780;2023-02-15T07:07:45;101804.91;;;1.54;72.11
77321;BME280;66382;52.252;8.780;2023-02-15T07:10:10;101803.38;;;1.50;71.61
77321;BME280;66382;52.252;8.780;2023-02-15T07:12:36;101801.41;;;1.54;72.22
77321;BME280;66382;52.252;8.780;2023-02-15T07:15:02;101805.81;;;1.53;71.45
77321;BME280;66382;52.252;8.780;2023-02-15T07:17:29;101796.00;;;1.55;71.88
77321;BME280;66382;52.252;8.780;2023-02-15T07:19:55;101789.59;;;1.59;71.88
77321;BME280;66382;52.252;8.780;2023-02-15T07:22:21;101792.31;;;1.58;72.04
77321;BME280;66382;52.252;8.780;2023-02-15T07:24:46;101784.31;;;1.59;71.82
77321;BME280;66382;52.252;8.780;2023-02-15T07:27:12;101793.91;;;1.60;71.88
77321;BME280;66382;52.252;8.780;2023-02-15T07:29:38;101773.94;;;1.56;72.13
77321;BME280;66382;52.252;8.780;2023-02-15T07:32:03;101793.53;;;1.66;71.92
77321;BME280;66382;52.252;8.780;2023-02-15T07:34:30;101783.91;;;1.65;72.93
77321;BME280;66382;52.252;8.780;2023-02-15T07:36:56;101786.53;;;1.65;72.03
77321;BME280;66382;52.252;8.780;2023-02-15T07:39:22;101792.50;;;1.69;72.06
77321;BME280;66382;52.252;8.780;2023-02-15T07:41:48;101788.59;;;1.75;71.96
77321;BME280;66382;52.252;8.780;2023-02-15T07:44:14;101785.75;;;1.78;72.09
77321;BME280;66382;52.252;8.780;2023-02-15T07:46:40;101781.22;;;1.80;72.18
77321;BME280;66382;52.252;8.780;2023-02-15T07:49:06;101784.28;;;1.74;71.84
77321;BME280;66382;52.252;8.780;2023-02-15T07:51:33;101781.16;;;1.67;72.19
77321;BME280;66382;52.252;8.780;2023-02-15T07:54:01;101752.34;;;1.49;71.99
77321;BME280;66382;52.252;8.780;2023-02-15T07:56:27;101782.22;;;1.64;72.05
77321;BME280;66382;52.252;8.780;2023-02-15T07:58:52;101774.00;;;1.69;72.03
77321;BME280;66382;52.252;8.780;2023-02-15T08:01:20;101774.44;;;1.76;72.51
77321;BME280;66382;52.252;8.780;2023-02-15T08:03:46;101766.72;;;1.85;72.29
77321;BME280;66382;52.252;8.780;2023-02-15T08:06:12;101765.34;;;1.80;72.46
77321;BME280;66382;52.252;8.780;2023-02-15T08:08:40;101757.84;;;1.74;71.94
77321;BME280;66382;52.252;8.780;2023-02-15T08:11:09;101768.13;;;1.78;72.04
77321;BME280;66382;52.252;8.780;2023-02-15T08:13:42;101767.06;;;1.81;71.86
77321;BME280;66382;52.252;8.780;2023-02-15T08:16:08;101759.75;;;1.84;71.88
77321;BME280;66382;52.252;8.780;2023-02-15T08:18:33;101745.28;;;1.90;71.94
77321;BME280;66382;52.252;8.780;2023-02-15T08:20:59;101745.50;;;2.00;72.07
77321;BME280;66382;52.252;8.780;2023-02-15T08:23:25;101754.13;;;2.03;71.62
77321;BME280;66382;52.252;8.780;2023-02-15T08:25:52;101739.94;;;2.04;71.40
77321;BME280;66382;52.252;8.780;2023-02-15T08:28:18;101746.72;;;2.08;71.79
77321;BME280;66382;52.252;8.780;2023-02-15T08:30:43;101743.09;;;2.09;71.99
77321;BME280;66382;52.252;8.780;2023-02-15T08:33:09;101740.47;;;2.09;71.77
77321;BME280;66382;52.252;8.780;2023-02-15T08:35:35;101741.84;;;2.15;71.89
77321;BME280;66382;52.252;8.780;2023-02-15T08:38:00;101741.13;;;2.26;71.54
77321;BME280;66382;52.252;8.780;2023-02-15T08:40:26;101745.97;;;2.19;71.22
77321;BME280;66382;52.252;8.780;2023-02-15T08:42:53;101742.59;;;2.17;71.09
77321;BME280;66382;52.252;8.780;2023-02-15T08:45:19;101741.22;;;2.11;71.87
77321;BME280;66382;52.252;8.780;2023-02-15T08:47:44;101730.94;;;2.07;71.74
77321;BME280;66382;52.252;8.780;2023-02-15T08:50:10;101728.59;;;2.15;72.22
77321;BME280;66382;52.252;8.780;2023-02-15T08:52:36;101730.63;;;2.24;71.58
77321;BME280;66382;52.252;8.780;2023-02-15T08:55:02;101732.00;;;2.30;71.96
77321;BME280;66382;52.252;8.780;2023-02-15T08:57:27;101723.88;;;2.20;72.24
77321;BME280;66382;52.252;8.780;2023-02-15T08:59:54;101708.94;;;2.19;72.06
77321;BME280;66382;52.252;8.780;2023-02-15T09:02:20;101733.41;;;2.35;71.63
77321;BME280;66382;52.252;8.780;2023-02-15T09:04:46;101731.63;;;2.36;71.94
77321;BME280;66382;52.252;8.780;2023-02-15T09:07:11;101728.22;;;2.47;71.89
77321;BME280;66382;52.252;8.780;2023-02-15T09:09:37;101733.84;;;2.55;71.76
77321;BME280;66382;52.252;8.780;2023-02-15T09:12:03;101731.81;;;2.58;71.47
77321;BME280;66382;52.252;8.780;2023-02-15T09:14:29;101730.25;;;2.56;71.63
77321;BME280;66382;52.252;8.780;2023-02-15T09:16:56;101728.13;;;2.61;71.75
77321;BME280;66382;52.252;8.780;2023-02-15T09:19:22;101726.00;;;2.53;70.90
77321;BME280;66382;52.252;8.780;2023-02-15T09:21:48;101727.28;;;2.48;71.46
77321;BME280;66382;52.252;8.780;2023-02-15T09:24:16;101713.94;;;2.36;71.02
77321;BME280;66382;52.252;8.780;2023-02-15T09:26:44;101715.09;;;2.45;72.21
77321;BME280;66382;52.252;8.780;2023-02-15T09:29:11;101726.53;;;2.58;71.81
77321;BME280;66382;52.252;8.780;2023-02-15T09:31:38;101718.69;;;2.70;72.03
77321;BME280;66382;52.252;8.780;2023-02-15T09:34:06;101712.13;;;2.75;71.57
77321;BME280;66382;52.252;8.780;2023-02-15T09:36:34;101690.81;;;2.64;71.20
77321;BME280;66382;52.252;8.780;2023-02-15T09:39:04;101718.69;;;2.83;72.18
77321;BME280;66382;52.252;8.780;2023-02-15T09:41:52;101713.56;;;2.92;71.51
77321;BME280;66382;52.252;8.780;2023-02-15T09:44:31;101721.59;;;3.04;71.69
77321;BME280;66382;52.252;8.780;2023-02-15T09:47:22;101715.31;;;3.17;71.46
77321;BME280;66382;52.252;8.780;2023-02-15T09:50:02;101702.47;;;3.24;71.94
77321;BME280;66382;52.252;8.780;2023-02-15T09:52:39;101701.91;;;3.56;72.03
77321;BME280;66382;52.252;8.780;2023-02-15T09:55:25;101702.78;;;3.92;72.43
77321;BME280;66382;52.252;8.780;2023-02-15T09:58:01;101700.13;;;4.03;71.33
77321;BME280;66382;52.252;8.780;2023-02-15T10:00:37;101690.16;;;4.06;70.43
77321;BME280;66382;52.252;8.780;2023-02-15T10:03:17;101682.94;;;4.08;70.42
77321;BME280;66382;52.252;8.780;2023-02-15T10:05:58;101695.25;;;4.32;71.08
77321;BME280;66382;52.252;8.780;2023-02-15T10:08:52;101692.88;;;4.74;72.05
77321;BME280;66382;52.252;8.780;2023-02-15T10:11:26;101684.84;;;5.19;71.71
77321;BME280;66382;52.252;8.780;2023-02-15T10:14:03;101688.16;;;5.76;72.20
77321;BME280;66382;52.252;8.780;2023-02-15T10:16:38;101696.25;;;6.28;72.57
77321;BME280;66382;52.252;8.780;2023-02-15T10:19:12;101688.38;;;6.78;73.36
77321;BME280;66382;52.252;8.780;2023-02-15T10:21:54;101691.16;;;7.26;72.02
77321;BME280;66382;52.252;8.780;2023-02-15T10:24:36;101697.69;;;7.72;71.57
77321;BME280;66382;52.252;8.780;2023-02-15T10:27:10;101690.91;;;8.07;71.05
77321;BME280;66382;52.252;8.780;2023-02-15T10:29:38;101685.09;;;8.31;69.24
77321;BME280;66382;52.252;8.780;2023-02-15T10:32:13;101693.16;;;8.69;70.83
77321;BME280;66382;52.252;8.780;2023-02-15T10:34:47;101692.88;;;8.99;69.33
77321;BME280;66382;52.252;8.780;2023-02-15T10:37:46;101675.81;;;9.28;69.84
77321;BME280;66382;52.252;8.780;2023-02-15T10:40:23;101682.13;;;9.55;70.30
77321;BME280;66382;52.252;8.780;2023-02-15T10:43:03;101669.09;;;9.78;70.06
77321;BME280;66382;52.252;8.780;2023-02-15T10:45:40;101673.63;;;10.03;68.62
77321;BME280;66382;52.252;8.780;2023-02-15T10:48:23;101627.91;;;9.97;67.98
77321;BME280;66382;52.252;8.780;2023-02-15T10:50:52;101661.34;;;10.37;67.05
77321;BME280;66382;52.252;8.780;2023-02-15T10:53:37;101666.63;;;10.28;68.31
77321;BME280;66382;52.252;8.780;2023-02-15T10:56:12;101661.47;;;10.09;64.83
77321;BME280;66382;52.252;8.780;2023-02-15T10:58:51;101658.75;;;9.83;63.87
77321;BME280;66382;52.252;8.780;2023-02-15T11:01:23;101653.25;;;9.66;63.67
77321;BME280;66382;52.252;8.780;2023-02-15T11:04:20;101647.31;;;9.55;64.10
77321;BME280;66382;52.252;8.780;2023-02-15T11:06:58;101643.03;;;9.62;64.17
77321;BME280;66382;52.252;8.780;2023-02-15T11:09:35;101646.16;;;9.57;63.87
77321;BME280;66382;52.252;8.780;2023-02-15T11:12:08;101644.84;;;9.43;62.35
77321;BME280;66382;52.252;8.780;2023-02-15T11:14:41;101644.41;;;9.30;63.14
77321;BME280;66382;52.252;8.780;2023-02-15T11:17:13;101651.09;;;9.16;63.76
77321;BME280;66382;52.252;8.780;2023-02-15T11:19:42;101649.03;;;9.10;64.09
77321;BME280;66382;52.252;8.780;2023-02-15T11:22:11;101648.53;;;8.97;63.08
77321;BME280;66382;52.252;8.780;2023-02-15T11:24:42;101651.31;;;8.77;62.05
77321;BME280;66382;52.252;8.780;2023-02-15T11:27:17;101651.00;;;8.53;63.04
77321;BME280;66382;52.252;8.780;2023-02-15T11:29:55;101644.28;;;8.39;64.60
77321;BME280;66382;52.252;8.780;2023-02-15T11:32:25;101644.44;;;8.37;64.30
77321;BME280;66382;52.252;8.780;2023-02-15T11:34:55;101639.38;;;8.44;65.81
77321;BME280;66382;52.252;8.780;2023-02-15T11:37:28;101636.09;;;8.50;64.92
77321;BME280;66382;52.252;8.780;2023-02-15T11:39:58;101632.03;;;8.56;65.14
77321;BME280;66382;52.252;8.780;2023-02-15T11:42:25;101636.38;;;8.57;62.71
77321;BME280;66382;52.252;8.780;2023-02-15T11:44:59;101625.72;;;8.47;63.64
77321;BME280;66382;52.252;8.780;2023-02-15T11:47:27;101631.22;;;8.36;63.99
77321;BME280;66382;52.252;8.780;2023-02-15T11:49:53;101628.56;;;8.36;65.26
77321;BME280;66382;52.252;8.780;2023-02-15T11:52:19;101632.50;;;8.42;65.68
77321;BME280;66382;52.252;8.780;2023-02-15T11:54:48;101636.00;;;8.42;64.83
77321;BME280;66382;52.252;8.780;2023-02-15T11:57:21;101643.31;;;8.40;64.93
77321;BME280;66382;52.252;8.780;2023-02-15T11:59:53;101633.34;;;8.42;65.19
77321;BME280;66382;52.252;8.780;2023-02-15T12:02:22;101623.34;;;8.44;64.86
77321;BME280;66382;52.252;8.780;2023-02-15T12:04:52;101617.31;;;8.42;65.73
77321;BME280;66382;52.252;8.780;2023-02-15T12:07:22;101616.88;;;8.47;64.72
77321;BME280;66382;52.252;8.780;2023-02-15T12:09:52;101608.97;;;8.45;64.61
77321;BME280;66382;52.252;8.780;2023-02-15T12:12:24;101601.94;;;8.54;64.95
77321;BME280;66382;52.252;8.780;2023-02-15T12:14:51;101601.75;;;8.55;64.79
77321;BME280;66382;52.252;8.780;2023-02-15T12:17:20;101598.38;;;8.63;65.12
77321;BME280;66382;52.252;8.780;2023-02-15T12:19:47;101605.78;;;8.69;64.42
77321;BME280;66382;52.252;8.780;2023-02-15T12:22:21;101595.47;;;8.74;64.34
77321;BME280;66382;52.252;8.780;2023-02-15T12:24:48;101595.34;;;8.76;64.85
77321;BME280;66382;52.252;8.780;2023-02-15T12:27:17;101594.34;;;8.77;64.82
77321;BME280;66382;52.252;8.780;2023-02-15T12:29:48;101589.00;;;8.77;65.01
77321;BME280;66382;52.252;8.780;2023-02-15T12:32:17;101580.00;;;8.78;64.67
77321;BME280;66382;52.252;8.780;2023-02-15T12:34:44;101553.22;;;8.60;64.20
77321;BME280;66382;52.252;8.780;2023-02-15T12:37:16;101576.91;;;8.73;65.03
77321;BME280;66382;52.252;8.780;2023-02-15T12:39:52;101585.34;;;8.78;64.85
77321;BME280;66382;52.252;8.780;2023-02-15T12:42:18;101576.47;;;8.77;65.19
77321;BME280;66382;52.252;8.780;2023-02-15T12:44:58;101574.88;;;8.85;65.32
77321;BME280;66382;52.252;8.780;2023-02-15T12:47:25;101563.34;;;8.84;64.66
77321;BME280;66382;52.252;8.780;2023-02-15T12:50:06;101558.69;;;8.86;65.90
77321;BME280;66382;52.252;8.780;2023-02-15T12:52:32;101576.03;;;9.00;65.33
77321;BME280;66382;52.252;8.780;2023-02-15T12:55:10;101561.50;;;9.02;65.61
77321;BME280;66382;52.252;8.780;2023-02-15T12:57:37;101562.56;;;9.10;64.45
77321;BME280;66382;52.252;8.780;2023-02-15T13:00:11;101555.09;;;9.13;64.97
77321;BME280;66382;52.252;8.780;2023-02-15T13:02:51;101555.47;;;9.18;64.71
77321;BME280;66382;52.252;8.780;2023-02-15T13:05:22;101543.78;;;9.19;64.06
77321;BME280;66382;52.252;8.780;2023-02-15T13:07:53;101547.13;;;9.21;64.45
77321;BME280;66382;52.252;8.780;2023-02-15T13:10:23;101547.97;;;9.22;64.98
77321;BME280;66382;52.252;8.780;2023-02-15T13:12:49;101545.16;;;9.23;64.29